createdAt,value
2022-09-06T00:00:27.552Z,7.30
2022-09-06T00:02:58.117Z,7.20
2022-09-06T00:05:27.048Z,7.90
2022-09-06T00:07:54.737Z,8.20
2022-09-06T00:10:22.190Z,7.50
2022-09-06T00:12:49.862Z,7.20
2022-09-06T00:15:17.488Z,7.00
2022-09-06T00:17:48.944Z,7.70
2022-09-06T00:20:17.456Z,7.90
2022-09-06T00:22:44.912Z,8.20
2022-09-06T00:25:12.370Z,7.60
2022-09-06T00:27:40.134Z,7.80
2022-09-06T00:30:08.962Z,8.10
2022-09-06T00:32:38.946Z,8.10
2022-09-06T00:35:15.387Z,7.70
2022-09-06T00:37:59.054Z,7.60
2022-09-06T00:40:37.630Z,8.40
2022-09-06T00:43:07.695Z,8.00
2022-09-06T00:45:36.577Z,8.10
2022-09-06T00:48:05.547Z,7.50
2022-09-06T00:50:36.066Z,7.80
2022-09-06T00:53:03.638Z,7.80
2022-09-06T00:55:31.090Z,8.50
2022-09-06T00:58:00.959Z,8.40
2022-09-06T01:00:30.099Z,8.70
2022-09-06T01:02:57.509Z,7.80
2022-09-06T01:05:41.933Z,8.00
2022-09-06T01:08:53.640Z,7.80
2022-09-06T01:11:33.137Z,7.90
2022-09-06T01:14:03.586Z,8.00
2022-09-06T01:16:57.387Z,8.10
2022-09-06T01:20:01.972Z,8.30
2022-09-06T01:23:00.222Z,7.50
2022-09-06T01:25:35.738Z,8.90
2022-09-06T01:28:28.048Z,8.20
2022-09-06T01:31:41.650Z,8.20
2022-09-06T01:34:18.435Z,7.80
2022-09-06T01:37:10.025Z,8.30
2022-09-06T01:39:40.139Z,8.90
2022-09-06T01:42:15.522Z,7.70
2022-09-06T01:44:51.426Z,8.50
2022-09-06T01:47:48.726Z,7.80
2022-09-06T01:50:51.065Z,9.30
2022-09-06T01:53:36.613Z,8.50
2022-09-06T01:56:26.207Z,8.10
2022-09-06T01:59:36.474Z,8.80
2022-09-06T02:02:16.593Z,8.70
2022-09-06T02:04:45.299Z,8.20
2022-09-06T02:07:28.982Z,8.10
2022-09-06T02:10:24.401Z,8.10
2022-09-06T02:12:54.189Z,8.50
2022-09-06T02:15:29.368Z,7.50
2022-09-06T02:18:06.375Z,8.40
2022-09-06T02:20:37.771Z,7.50
2022-09-06T02:23:06.845Z,8.70
2022-09-06T02:25:43.798Z,8.60
2022-09-06T02:28:11.311Z,8.70
2022-09-06T02:30:44.544Z,9.00
2022-09-06T02:33:20.397Z,8.40
2022-09-06T02:35:51.815Z,8.70
2022-09-06T02:38:23.076Z,8.20
2022-09-06T02:43:21.125Z,8.70
2022-09-06T02:45:48.829Z,8.40
2022-09-06T02:48:16.919Z,8.30
2022-09-06T02:50:44.534Z,8.60
2022-09-06T02:53:14.516Z,8.40
2022-09-06T02:55:42.420Z,8.50
2022-09-06T02:58:11.524Z,7.80
2022-09-06T03:00:39.167Z,8.60
2022-09-06T03:03:06.950Z,8.70
2022-09-06T03:05:34.581Z,8.20
2022-09-06T03:08:02.857Z,8.90
2022-09-06T03:10:30.495Z,8.50
2022-09-06T03:12:58.148Z,8.40
2022-09-06T03:15:25.603Z,8.50
2022-09-06T03:17:58.905Z,8.40
2022-09-06T03:20:26.765Z,7.90
2022-09-06T03:22:54.160Z,8.30
2022-09-06T03:25:22.056Z,8.30
2022-09-06T03:27:49.556Z,8.30
2022-09-06T03:30:17.403Z,8.40
2022-09-06T03:32:44.940Z,9.00
2022-09-06T03:35:12.598Z,8.10
2022-09-06T03:37:40.284Z,7.90
2022-09-06T03:40:09.125Z,8.30
2022-09-06T03:42:36.532Z,8.60
2022-09-06T03:45:05.346Z,8.80
2022-09-06T03:47:33.242Z,8.80
2022-09-06T03:50:00.584Z,8.80
2022-09-06T03:52:28.166Z,8.90
2022-09-06T03:54:55.731Z,8.60
2022-09-06T03:57:23.311Z,9.10
2022-09-06T03:59:50.809Z,8.10
2022-09-06T04:02:18.264Z,8.50
2022-09-06T04:04:48.246Z,9.30
2022-09-06T04:07:15.750Z,8.30
2022-09-06T04:09:43.533Z,9.30
2022-09-06T04:12:11.146Z,8.50
2022-09-06T04:14:38.694Z,8.50
2022-09-06T04:17:06.971Z,8.20
2022-09-06T04:19:35.070Z,8.60
2022-09-06T04:22:02.974Z,8.10
2022-09-06T04:24:30.734Z,9.00
2022-09-06T04:26:58.343Z,8.80
2022-09-06T04:29:25.851Z,7.90
2022-09-06T04:31:53.439Z,8.50
2022-09-06T04:34:20.906Z,8.60
2022-09-06T04:36:54.091Z,9.10
2022-09-06T04:39:21.412Z,9.10
2022-09-06T04:41:49.020Z,8.10
2022-09-06T04:44:16.359Z,8.60
2022-09-06T04:46:43.877Z,9.50
2022-09-06T04:49:11.404Z,8.10
2022-09-06T04:51:39.853Z,9.20
2022-09-06T04:54:09.658Z,9.50
2022-09-06T04:56:36.929Z,9.10
2022-09-06T04:59:04.248Z,9.40
2022-09-06T05:01:31.732Z,8.70
2022-09-06T05:03:59.424Z,9.40
2022-09-06T05:06:26.959Z,9.00
2022-09-06T05:08:54.323Z,8.40
2022-09-06T05:11:21.893Z,8.90
2022-09-06T05:13:49.849Z,8.80
2022-09-06T05:16:17.321Z,9.00
2022-09-06T05:18:44.708Z,9.40
2022-09-06T05:21:15.449Z,10.80
2022-09-06T05:23:42.948Z,8.80
2022-09-06T05:26:10.249Z,9.70
2022-09-06T05:28:37.893Z,10.10
2022-09-06T05:31:22.368Z,9.10
2022-09-06T05:33:51.288Z,8.80
2022-09-06T05:36:18.804Z,9.60
2022-09-06T05:38:46.175Z,9.00
2022-09-06T05:41:13.532Z,9.10
2022-09-06T05:43:41.009Z,9.90
2022-09-06T05:46:10.059Z,11.50
2022-09-06T05:48:38.024Z,10.30
2022-09-06T05:51:13.183Z,10.70
2022-09-06T05:53:45.045Z,10.90
2022-09-06T05:56:14.430Z,9.70
2022-09-06T05:58:42.062Z,10.30
2022-09-06T06:01:28.242Z,10.20
2022-09-06T06:04:04.401Z,10.00
2022-09-06T06:06:34.065Z,9.80
2022-09-06T06:09:01.980Z,10.00
2022-09-06T06:11:30.722Z,10.20
2022-09-06T06:14:01.260Z,10.20
2022-09-06T06:16:29.029Z,9.50
2022-09-06T06:18:56.864Z,9.70
2022-09-06T06:21:30.406Z,9.00
2022-09-06T06:24:01.032Z,8.50
2022-09-06T06:26:31.598Z,8.30
2022-09-06T06:29:01.769Z,9.00
2022-09-06T06:31:31.701Z,8.00
2022-09-06T06:34:03.303Z,8.40
2022-09-06T06:36:33.317Z,8.40
2022-09-06T06:39:03.197Z,8.00
2022-09-06T06:41:32.222Z,8.60
2022-09-06T06:44:02.498Z,8.90
2022-09-06T06:46:33.181Z,8.50
2022-09-06T06:49:01.029Z,8.40
2022-09-06T06:51:32.081Z,7.90
2022-09-06T06:54:00.137Z,8.80
2022-09-06T06:56:37.305Z,8.30
2022-09-06T06:59:06.681Z,8.80
2022-09-06T07:01:35.545Z,9.10
2022-09-06T07:04:04.480Z,8.70
2022-09-06T07:12:25.249Z,8.20
2022-09-06T07:14:52.781Z,8.50
2022-09-06T07:17:20.760Z,8.50
2022-09-06T07:22:37.568Z,8.70
2022-09-06T07:25:06.484Z,9.70
2022-09-06T07:27:50.130Z,8.20
2022-09-06T07:30:19.645Z,10.20
2022-09-06T07:32:48.190Z,8.50
2022-09-06T07:35:16.082Z,8.20
2022-09-06T07:37:43.839Z,8.60
2022-09-06T07:40:11.609Z,8.80
2022-09-06T07:42:39.409Z,8.40
2022-09-06T07:45:08.087Z,8.60
2022-09-06T07:53:15.486Z,6.70
2022-09-06T07:56:01.655Z,5.90
2022-09-06T07:58:30.654Z,6.00
2022-09-06T08:01:29.805Z,5.70
2022-09-06T08:04:12.430Z,6.90
2022-09-06T08:09:41.929Z,6.70
2022-09-06T08:12:10.118Z,5.10
2022-09-06T08:14:37.607Z,5.90
2022-09-06T08:17:05.319Z,5.10
2022-09-06T08:19:34.122Z,5.90
2022-09-06T08:22:01.952Z,5.20
2022-09-06T08:24:29.727Z,4.90
2022-09-06T08:26:57.565Z,4.80
2022-09-06T08:29:26.562Z,4.50
2022-09-06T08:31:54.062Z,6.60
2022-09-06T08:34:21.533Z,5.00
2022-09-06T08:36:49.036Z,4.40
2022-09-06T08:39:16.617Z,5.10
2022-09-06T08:42:05.648Z,5.30
2022-09-06T08:47:22.148Z,4.50
2022-09-06T08:50:01.951Z,4.40
2022-09-06T08:53:17.133Z,3.50
2022-09-06T08:56:03.073Z,2.90
2022-09-06T08:58:58.204Z,3.10
2022-09-06T09:01:34.124Z,3.10
2022-09-06T09:04:04.824Z,3.00
2022-09-06T09:06:33.398Z,2.50
2022-09-06T09:09:09.924Z,2.60
2022-09-06T09:11:39.234Z,2.10
2022-09-06T09:14:24.505Z,2.20
2022-09-06T09:16:56.301Z,2.10
2022-09-06T09:19:23.858Z,2.00
2022-09-06T09:21:51.460Z,2.20
2022-09-06T09:24:19.132Z,2.40
2022-09-06T09:26:54.556Z,2.90
2022-09-06T09:29:27.487Z,2.40
2022-09-06T09:31:57.068Z,2.60
2022-09-06T09:34:33.126Z,2.40
2022-09-06T09:40:33.064Z,2.90
2022-09-06T09:43:22.582Z,2.40
2022-09-06T09:46:13.972Z,2.40
2022-09-06T09:49:04.127Z,2.50
2022-09-06T09:51:35.587Z,2.90
2022-09-06T09:54:13.237Z,2.60
2022-09-06T09:56:52.536Z,2.60
2022-09-06T09:59:25.664Z,2.30
2022-09-06T10:02:01.414Z,2.30
2022-09-06T10:04:43.207Z,2.50
2022-09-06T10:07:16.763Z,2.50
2022-09-06T10:09:48.252Z,1.90
2022-09-06T10:12:29.733Z,1.80
2022-09-06T10:15:00.214Z,2.00
2022-09-06T10:17:48.033Z,2.10
2022-09-06T10:20:18.672Z,2.30
2022-09-06T10:23:17.804Z,1.90
2022-09-06T10:25:49.136Z,2.10
2022-09-06T10:28:36.430Z,2.00
2022-09-06T10:31:13.044Z,1.90
2022-09-06T10:34:04.684Z,2.00
2022-09-06T10:36:36.127Z,1.40
2022-09-06T10:39:19.677Z,1.60
2022-09-06T10:41:54.842Z,1.90
2022-09-06T10:44:56.190Z,2.80
2022-09-06T10:47:30.785Z,1.80
2022-09-06T10:50:05.569Z,1.90
2022-09-06T10:52:40.885Z,1.80
2022-09-06T10:55:13.546Z,1.70
2022-09-06T11:00:46.351Z,1.80
2022-09-06T11:04:00.019Z,1.70
2022-09-06T11:06:33.964Z,1.70
2022-09-06T11:09:39.702Z,1.70
2022-09-06T11:12:32.966Z,2.10
2022-09-06T11:15:03.646Z,2.20
2022-09-06T11:17:37.888Z,1.90
2022-09-06T11:20:28.644Z,1.90
2022-09-06T11:23:14.251Z,2.10
2022-09-06T11:25:44.487Z,1.40
2022-09-06T11:28:19.217Z,1.70
2022-09-06T11:30:47.979Z,1.70
2022-09-06T11:33:35.255Z,1.40
2022-09-06T11:36:44.607Z,1.10
2022-09-06T11:39:12.848Z,2.60
2022-09-06T11:41:42.208Z,2.50
2022-09-06T11:44:11.041Z,2.50
2022-09-06T11:46:42.424Z,2.10
2022-09-06T11:49:16.043Z,1.70
2022-09-06T11:51:46.513Z,2.00
2022-09-06T11:54:22.630Z,2.50
2022-09-06T11:57:16.542Z,1.60
2022-09-06T11:59:56.320Z,1.90
2022-09-06T12:02:40.637Z,1.60
2022-09-06T12:05:30.071Z,1.70
2022-09-06T12:08:31.970Z,2.20
2022-09-06T12:11:43.157Z,2.20
2022-09-06T12:14:28.634Z,1.60
2022-09-06T12:16:58.679Z,1.70
2022-09-06T12:19:51.570Z,1.50
2022-09-06T12:22:35.422Z,1.70
2022-09-06T12:25:16.106Z,1.80
2022-09-06T12:27:56.219Z,2.30
2022-09-06T12:30:44.832Z,1.60
2022-09-06T12:33:25.193Z,1.70
2022-09-06T12:38:25.089Z,1.90
2022-09-06T12:40:57.796Z,3.40
2022-09-06T12:43:25.923Z,2.10
2022-09-06T12:45:53.654Z,1.60
2022-09-06T12:48:31.128Z,1.70
2022-09-06T12:51:08.847Z,1.80
2022-09-06T12:53:36.404Z,1.60
2022-09-06T12:56:11.856Z,1.60
2022-09-06T12:58:39.856Z,1.30
2022-09-06T13:01:37.324Z,1.60
2022-09-06T13:04:23.762Z,1.80
2022-09-06T13:06:51.337Z,2.70
2022-09-06T13:09:20.089Z,2.10
2022-09-06T13:11:51.195Z,2.80
2022-09-06T13:14:27.469Z,1.90
2022-09-06T13:16:59.527Z,1.70
2022-09-06T13:19:34.501Z,2.10
2022-09-06T13:22:06.935Z,1.70
2022-09-06T13:24:34.314Z,1.60
2022-09-06T13:27:23.020Z,2.10
2022-09-06T13:31:01.063Z,1.70
2022-09-06T13:33:29.088Z,2.20
2022-09-06T13:36:11.901Z,2.30
2022-09-06T13:38:40.468Z,2.00
2022-09-06T13:41:27.852Z,1.60
2022-09-06T13:44:07.518Z,1.40
2022-09-06T13:46:38.219Z,1.80
2022-09-06T13:49:06.157Z,2.10
2022-09-06T13:51:34.700Z,2.10
2022-09-06T13:54:08.292Z,1.80
2022-09-06T13:56:36.254Z,2.10
2022-09-06T13:59:05.788Z,1.70
2022-09-06T14:01:33.826Z,2.20
2022-09-06T14:04:01.918Z,2.10
2022-09-06T14:06:32.457Z,1.90
2022-09-06T14:09:08.320Z,1.90
2022-09-06T14:11:36.752Z,2.40
2022-09-06T14:14:05.265Z,2.20
2022-09-06T14:16:34.385Z,2.20
2022-09-06T14:19:05.987Z,2.10
2022-09-06T14:21:34.566Z,2.40
2022-09-06T14:24:04.600Z,2.20
2022-09-06T14:26:33.804Z,5.00
2022-09-06T14:29:01.618Z,2.80
2022-09-06T14:31:30.454Z,3.00
2022-09-06T14:33:58.657Z,2.70
2022-09-06T14:36:31.794Z,2.60
2022-09-06T14:39:00.727Z,2.40
2022-09-06T14:41:28.962Z,2.40
2022-09-06T14:43:58.735Z,2.40
2022-09-06T14:46:28.032Z,2.70
2022-09-06T14:49:08.133Z,3.50
2022-09-06T14:51:38.256Z,2.70
2022-09-06T14:54:10.393Z,2.40
2022-09-06T14:56:40.244Z,2.60
2022-09-06T14:59:08.882Z,2.80
2022-09-06T15:01:38.919Z,2.40
2022-09-06T15:04:09.883Z,2.60
2022-09-06T15:06:40.211Z,2.60
2022-09-06T15:09:09.838Z,2.40
2022-09-06T15:11:44.862Z,2.50
2022-09-06T15:14:29.227Z,2.70
2022-09-06T15:16:59.624Z,2.50
2022-09-06T15:19:28.923Z,2.60
2022-09-06T15:21:57.244Z,2.70
2022-09-06T15:24:25.504Z,2.70
2022-09-06T15:26:53.062Z,2.60
2022-09-06T15:29:20.854Z,2.70
2022-09-06T15:31:50.220Z,2.70
2022-09-06T15:34:20.357Z,3.40
2022-09-06T15:36:48.520Z,5.10
2022-09-06T15:39:16.259Z,2.80
2022-09-06T15:41:44.104Z,4.40
2022-09-06T15:44:17.635Z,3.00
2022-09-06T15:46:54.621Z,2.80
2022-09-06T15:49:28.193Z,3.00
2022-09-06T15:51:58.970Z,3.00
2022-09-06T15:54:45.787Z,2.60
2022-09-06T15:57:15.778Z,2.70
2022-09-06T15:59:43.892Z,3.00
2022-09-06T16:02:12.028Z,3.60
2022-09-06T16:04:39.879Z,4.00
2022-09-06T16:07:07.389Z,4.30
2022-09-06T16:09:34.912Z,3.70
2022-09-06T16:12:02.849Z,4.50
2022-09-06T16:14:31.928Z,5.30
2022-09-06T16:16:59.590Z,3.70
2022-09-06T16:19:27.219Z,4.10
2022-09-06T16:21:54.698Z,3.00
2022-09-06T16:24:23.069Z,3.20
2022-09-06T16:26:50.679Z,3.60
2022-09-06T16:29:19.984Z,3.30
2022-09-06T16:31:47.921Z,2.90
2022-09-06T16:34:15.784Z,2.90
2022-09-06T16:36:43.528Z,3.60
2022-09-06T16:39:11.178Z,3.50
2022-09-06T16:41:45.238Z,3.40
2022-09-06T16:44:17.676Z,3.60
2022-09-06T16:46:47.853Z,3.20
2022-09-06T16:49:17.555Z,3.40
2022-09-06T16:51:47.036Z,3.30
2022-09-06T16:54:15.117Z,3.60
2022-09-06T16:56:43.489Z,3.40
2022-09-06T16:59:11.652Z,3.50
2022-09-06T17:01:43.830Z,3.50
2022-09-06T17:04:12.694Z,7.10
2022-09-06T17:06:46.403Z,4.20
2022-09-06T17:09:18.199Z,4.10
2022-09-06T17:11:49.307Z,4.30
2022-09-06T17:17:03.065Z,3.70
2022-09-06T17:19:40.831Z,3.50
2022-09-06T17:22:10.415Z,3.50
2022-09-06T17:24:38.693Z,3.40
2022-09-06T17:27:07.261Z,3.50
2022-09-06T17:29:34.883Z,3.50
2022-09-06T17:35:58.860Z,3.90
2022-09-06T17:38:31.558Z,3.20
2022-09-06T17:41:00.006Z,3.40
2022-09-06T17:43:27.541Z,3.60
2022-09-06T17:45:55.066Z,3.70
2022-09-06T17:48:24.610Z,3.50
2022-09-06T17:51:11.142Z,3.70
2022-09-06T17:56:59.308Z,4.40
2022-09-06T18:03:30.590Z,5.10
2022-09-06T18:06:43.033Z,4.60
2022-09-06T18:09:33.723Z,4.70
2022-09-06T18:12:01.594Z,4.70
2022-09-06T18:14:29.216Z,4.50
2022-09-06T18:16:56.830Z,5.70
2022-09-06T18:19:25.743Z,5.50
2022-09-06T18:22:05.655Z,5.10
2022-09-06T18:24:33.149Z,4.80
2022-09-06T18:27:02.422Z,5.80
2022-09-06T18:29:33.368Z,5.00
2022-09-06T18:32:04.051Z,4.90
2022-09-06T18:34:31.741Z,4.40
2022-09-06T18:36:59.883Z,4.20
2022-09-06T18:39:29.702Z,5.40
2022-09-06T18:42:00.140Z,5.30
2022-09-06T18:44:33.833Z,4.60
2022-09-06T18:47:29.235Z,4.70
2022-09-06T18:50:00.645Z,4.20
2022-09-06T18:52:28.280Z,3.70
2022-09-06T18:54:55.853Z,4.60
2022-09-06T18:57:23.615Z,4.00
2022-09-06T18:59:51.473Z,4.30
2022-09-06T19:02:19.126Z,4.10
2022-09-06T19:04:47.395Z,4.10
2022-09-06T19:07:14.833Z,4.80
2022-09-06T19:09:45.196Z,4.90
2022-09-06T19:12:22.060Z,4.20
2022-09-06T19:15:10.430Z,4.70
2022-09-06T19:17:44.324Z,4.80
2022-09-06T19:20:12.738Z,4.70
2022-09-06T19:22:40.453Z,4.60
2022-09-06T19:25:10.427Z,4.10
2022-09-06T19:27:38.345Z,5.60
2022-09-06T19:30:07.331Z,4.70
2022-09-06T19:32:34.970Z,5.10
2022-09-06T19:36:10.276Z,5.00
2022-09-06T19:39:01.535Z,5.80
2022-09-06T19:41:29.637Z,6.00
2022-09-06T19:43:58.447Z,5.20
2022-09-06T19:46:27.089Z,4.50
2022-09-06T19:48:55.589Z,4.80
2022-09-06T19:51:24.070Z,4.50
2022-09-06T19:53:59.494Z,4.90
2022-09-06T19:56:33.691Z,5.70
2022-09-06T19:59:04.900Z,5.60
2022-09-06T20:01:59.714Z,5.00
2022-09-06T20:04:41.917Z,5.40
2022-09-06T20:07:09.322Z,5.30
2022-09-06T20:09:38.311Z,5.00
2022-09-06T20:12:05.930Z,4.70
2022-09-06T20:14:57.745Z,6.40
2022-09-06T20:17:34.053Z,6.10
2022-09-06T20:20:15.960Z,5.60
2022-09-06T20:22:47.934Z,5.50
2022-09-06T20:25:17.165Z,5.30
2022-09-06T20:27:45.931Z,5.60
2022-09-06T20:30:13.778Z,5.40
2022-09-06T20:32:42.087Z,4.90
2022-09-06T20:35:09.788Z,5.50
2022-09-06T20:37:40.518Z,4.30
2022-09-06T20:40:08.904Z,4.50
2022-09-06T20:42:41.644Z,4.70
2022-09-06T20:45:12.486Z,4.90
2022-09-06T20:47:40.608Z,5.50
2022-09-06T20:50:08.940Z,5.90
2022-09-06T20:52:36.575Z,5.70
2022-09-06T20:55:05.068Z,5.80
2022-09-06T20:57:32.691Z,6.10
2022-09-06T21:00:05.606Z,6.40
2022-09-06T21:02:33.487Z,5.30
2022-09-06T21:05:02.136Z,5.00
2022-09-06T21:07:29.727Z,5.50
2022-09-06T21:09:57.285Z,5.20
2022-09-06T21:12:25.404Z,5.10
2022-09-06T21:14:54.963Z,5.10
2022-09-06T21:17:22.446Z,5.00
2022-09-06T21:19:49.845Z,4.90
2022-09-06T21:22:17.707Z,5.00
2022-09-06T21:24:46.678Z,4.70
2022-09-06T21:27:16.680Z,4.70
2022-09-06T21:29:44.666Z,5.00
2022-09-06T21:32:12.048Z,4.90
2022-09-06T21:34:39.485Z,4.40
2022-09-06T21:37:07.731Z,4.00
2022-09-06T21:39:35.271Z,4.30
2022-09-06T21:42:03.184Z,3.60
2022-09-06T21:44:30.581Z,3.70
2022-09-06T21:46:58.037Z,3.70
2022-09-06T21:49:25.515Z,3.60
2022-09-06T21:51:54.080Z,3.60
2022-09-06T21:54:24.566Z,3.70
2022-09-06T21:56:55.452Z,3.50
2022-09-06T21:59:42.944Z,3.00
2022-09-06T22:02:10.533Z,2.90
2022-09-06T22:04:52.468Z,3.20
2022-09-06T22:07:19.859Z,3.00
2022-09-06T22:09:48.154Z,3.00
2022-09-06T22:12:15.381Z,2.80
2022-09-06T22:14:43.961Z,2.70
2022-09-06T22:17:11.377Z,3.10
2022-09-06T22:19:38.739Z,3.20
2022-09-06T22:22:06.229Z,2.90
2022-09-06T22:24:33.511Z,3.10
2022-09-06T22:27:00.837Z,3.20
2022-09-06T22:29:28.213Z,2.50
2022-09-06T22:31:56.418Z,3.10
2022-09-06T22:34:23.832Z,3.10
2022-09-06T22:36:51.203Z,2.70
2022-09-06T22:39:19.076Z,3.00
2022-09-06T22:41:46.425Z,2.80
2022-09-06T22:44:13.884Z,3.20
2022-09-06T22:46:41.293Z,3.10
2022-09-06T22:49:08.603Z,3.40
2022-09-06T22:51:35.968Z,2.50
2022-09-06T22:54:04.177Z,2.70
2022-09-06T22:56:35.216Z,2.50
2022-09-06T22:59:03.391Z,3.00
2022-09-06T23:01:32.281Z,2.40
2022-09-06T23:03:59.583Z,2.60
2022-09-06T23:06:27.706Z,2.60
2022-09-06T23:08:55.003Z,2.20
2022-09-06T23:11:22.318Z,2.00
2022-09-06T23:13:49.642Z,1.90
2022-09-06T23:16:18.832Z,2.30
2022-09-06T23:18:46.850Z,2.50
2022-09-06T23:21:20.223Z,1.90
2022-09-06T23:23:49.732Z,2.20
2022-09-06T23:26:32.368Z,1.90
2022-09-06T23:28:59.667Z,2.10
2022-09-06T23:31:30.906Z,2.00
2022-09-06T23:34:00.047Z,1.80
2022-09-06T23:36:27.913Z,2.50
2022-09-06T23:38:55.561Z,2.00
2022-09-06T23:41:23.907Z,2.10
2022-09-06T23:43:51.281Z,2.40
2022-09-06T23:46:18.894Z,2.20
2022-09-06T23:48:46.551Z,2.10
2022-09-06T23:51:14.053Z,2.00
2022-09-06T23:53:41.742Z,2.50
2022-09-06T23:56:09.396Z,2.20
2022-09-06T23:58:37.264Z,2.30
